sensor_id;sensor_type;location;lat;lon;timestamp;pressure;altitude;pressure_sealevel;temperature;humidity
77739;BME280;66904;59.926;30.404;2023-01-15T00:00:30;100746.09;;;29.36;26.86
77739;BME280;66904;59.926;30.404;2023-01-15T00:11:33;100754.81;;;29.14;27.35
77739;BME280;66904;59.926;30.404;2023-01-15T00:22:57;100739.69;;;29.30;26.76
77739;BME280;66904;59.926;30.404;2023-01-15T00:27:57;100754.81;;;29.14;26.91
77739;BME280;66904;59.926;30.404;2023-01-15T00:32:58;100762.16;;;29.14;26.96
77739;BME280;66904;59.926;30.404;2023-01-15T00:38:04;100754.22;;;29.12;27.28
77739;BME280;66904;59.926;30.404;2023-01-15T00:43:05;100755.84;;;29.13;26.61
77739;BME280;66904;59.926;30.404;2023-01-15T00:54:14;100753.03;;;29.20;27.08
77739;BME280;66904;59.926;30.404;2023-01-15T01:00:10;100760.22;;;29.33;26.59
77739;BME280;66904;59.926;30.404;2023-01-15T01:05:35;100768.25;;;29.28;26.42
77739;BME280;66904;59.926;30.404;2023-01-15T01:10:36;100764.28;;;29.23;27.19
77739;BME280;66904;59.926;30.404;2023-01-15T01:15:42;100769.34;;;29.27;27.07
77739;BME280;66904;59.926;30.404;2023-01-15T01:21:03;100758.19;;;29.28;26.86
77739;BME280;66904;59.926;30.404;2023-01-15T01:26:04;100754.03;;;29.26;26.75
77739;BME280;66904;59.926;30.404;2023-01-15T01:31:20;100748.47;;;29.44;26.75
77739;BME280;66904;59.926;30.404;2023-01-15T01:36:41;100747.88;;;29.42;26.81
77739;BME280;66904;59.926;30.404;2023-01-15T01:41:49;100742.88;;;29.27;26.23
77739;BME280;66904;59.926;30.404;2023-01-15T01:47:06;100740.03;;;29.34;26.49
77739;BME280;66904;59.926;30.404;2023-01-15T01:52:32;100732.94;;;29.33;26.84
77739;BME280;66904;59.926;30.404;2023-01-15T01:57:36;100729.03;;;29.29;26.37
77739;BME280;66904;59.926;30.404;2023-01-15T02:02:38;100718.34;;;29.27;26.49
77739;BME280;66904;59.926;30.404;2023-01-15T02:07:39;100727.97;;;29.30;26.54
77739;BME280;66904;59.926;30.404;2023-01-15T02:12:41;100714.47;;;29.35;26.22
77739;BME280;66904;59.926;30.404;2023-01-15T02:29:11;100715.50;;;29.34;26.50
77739;BME280;66904;59.926;30.404;2023-01-15T02:34:47;100714.47;;;29.46;26.52
77739;BME280;66904;59.926;30.404;2023-01-15T02:40:09;100719.91;;;29.35;26.17
77739;BME280;66904;59.926;30.404;2023-01-15T02:45:51;100708.06;;;29.29;26.58
77739;BME280;66904;59.926;30.404;2023-01-15T02:51:19;100726.78;;;29.37;26.27
77739;BME280;66904;59.926;30.404;2023-01-15T02:56:29;100725.00;;;29.31;26.13
77739;BME280;66904;59.926;30.404;2023-01-15T03:02:03;100723.34;;;29.42;25.81
77739;BME280;66904;59.926;30.404;2023-01-15T03:07:41;100715.75;;;29.44;25.79
77739;BME280;66904;59.926;30.404;2023-01-15T03:18:54;100705.94;;;29.43;25.93
77739;BME280;66904;59.926;30.404;2023-01-15T03:24:49;100706.16;;;29.41;26.42
77739;BME280;66904;59.926;30.404;2023-01-15T03:30:17;100701.59;;;29.23;26.47
77739;BME280;66904;59.926;30.404;2023-01-15T03:35:56;100706.16;;;29.41;26.01
77739;BME280;66904;59.926;30.404;2023-01-15T03:41:39;100711.88;;;29.40;26.35
77739;BME280;66904;59.926;30.404;2023-01-15T03:47:11;100704.00;;;29.43;26.25
77739;BME280;66904;59.926;30.404;2023-01-15T03:52:53;100705.44;;;29.34;25.65
77739;BME280;66904;59.926;30.404;2023-01-15T03:58:12;100711.00;;;29.28;25.37
77739;BME280;66904;59.926;30.404;2023-01-15T04:09:14;100697.00;;;29.24;25.33
77739;BME280;66904;59.926;30.404;2023-01-15T04:14:34;100695.22;;;29.06;25.57
77739;BME280;66904;59.926;30.404;2023-01-15T04:19:34;100683.72;;;29.04;25.66
77739;BME280;66904;59.926;30.404;2023-01-15T04:24:38;100678.75;;;29.13;25.79
77739;BME280;66904;59.926;30.404;2023-01-15T04:29:54;100675.53;;;29.04;25.26
77739;BME280;66904;59.926;30.404;2023-01-15T04:34:54;100651.97;;;28.98;26.37
77739;BME280;66904;59.926;30.404;2023-01-15T04:39:55;100658.84;;;29.12;26.20
77739;BME280;66904;59.926;30.404;2023-01-15T04:44:55;100669.03;;;29.17;26.10
77739;BME280;66904;59.926;30.404;2023-01-15T04:49:56;100664.53;;;29.22;26.37
77739;BME280;66904;59.926;30.404;2023-01-15T04:54:56;100654.03;;;29.26;26.34
77739;BME280;66904;59.926;30.404;2023-01-15T05:00:07;100668.25;;;29.40;26.07
77739;BME280;66904;59.926;30.404;2023-01-15T05:05:07;100657.34;;;29.28;26.74
77739;BME280;66904;59.926;30.404;2023-01-15T05:10:08;100657.34;;;29.28;26.61
77739;BME280;66904;59.926;30.404;2023-01-15T05:15:09;100661.72;;;29.29;26.40
77739;BME280;66904;59.926;30.404;2023-01-15T05:20:13;100659.94;;;29.35;25.91
77739;BME280;66904;59.926;30.404;2023-01-15T05:25:14;100656.75;;;29.26;25.64
77739;BME280;66904;59.926;30.404;2023-01-15T05:30:15;100645.47;;;29.22;25.93
77739;BME280;66904;59.926;30.404;2023-01-15T05:35:16;100638.81;;;29.18;25.40
77739;BME280;66904;59.926;30.404;2023-01-15T05:40:16;100634.44;;;29.06;25.34
77739;BME280;66904;59.926;30.404;2023-01-15T05:45:17;100643.19;;;29.08;24.91
77739;BME280;66904;59.926;30.404;2023-01-15T05:50:17;100638.00;;;29.06;25.12
77739;BME280;66904;59.926;30.404;2023-01-15T05:55:18;100640.59;;;29.01;24.84
77739;BME280;66904;59.926;30.404;2023-01-15T06:00:19;100627.22;;;29.00;24.94
77739;BME280;66904;59.926;30.404;2023-01-15T06:05:19;100605.44;;;29.00;24.67
77739;BME280;66904;59.926;30.404;2023-01-15T06:10:20;100596.44;;;28.99;24.49
77739;BME280;66904;59.926;30.404;2023-01-15T06:15:20;100592.88;;;28.99;24.57
77739;BME280;66904;59.926;30.404;2023-01-15T06:20:21;100591.22;;;28.98;24.78
77739;BME280;66904;59.926;30.404;2023-01-15T06:25:21;100577.84;;;28.96;24.43
77739;BME280;66904;59.926;30.404;2023-01-15T06:30:22;100585.88;;;28.91;24.40
77739;BME280;66904;59.926;30.404;2023-01-15T06:35:22;100576.88;;;28.91;24.38
77739;BME280;66904;59.926;30.404;2023-01-15T06:40:28;100584.69;;;28.87;24.54
77739;BME280;66904;59.926;30.404;2023-01-15T06:45:37;100579.25;;;28.99;24.74
77739;BME280;66904;59.926;30.404;2023-01-15T06:50:56;100567.53;;;28.87;24.62
77739;BME280;66904;59.926;30.404;2023-01-15T06:55:57;100551.19;;;28.87;24.65
77739;BME280;66904;59.926;30.404;2023-01-15T07:00:58;100539.56;;;28.91;24.73
77739;BME280;66904;59.926;30.404;2023-01-15T07:05:58;100525.13;;;28.91;24.49
77739;BME280;66904;59.926;30.404;2023-01-15T07:11:07;100519.41;;;29.04;24.18
77739;BME280;66904;59.926;30.404;2023-01-15T07:16:07;100524.41;;;28.95;24.40
77739;BME280;66904;59.926;30.404;2023-01-15T07:21:26;100524.63;;;28.94;24.49
77739;BME280;66904;59.926;30.404;2023-01-15T07:26:27;100510.66;;;28.90;24.18
77739;BME280;66904;59.926;30.404;2023-01-15T07:31:27;100492.56;;;28.84;24.03
77739;BME280;66904;59.926;30.404;2023-01-15T07:36:28;100506.41;;;28.94;23.99
77739;BME280;66904;59.926;30.404;2023-01-15T07:41:28;100489.97;;;28.89;24.29
77739;BME280;66904;59.926;30.404;2023-01-15T07:46:48;100480.47;;;28.92;24.15
77739;BME280;66904;59.926;30.404;2023-01-15T07:52:07;100480.00;;;28.95;23.94
77739;BME280;66904;59.926;30.404;2023-01-15T07:57:07;100465.56;;;28.94;24.32
77739;BME280;66904;59.926;30.404;2023-01-15T08:02:08;100465.56;;;28.94;25.01
77739;BME280;66904;59.926;30.404;2023-01-15T08:07:09;100457.72;;;28.98;25.07
77739;BME280;66904;59.926;30.404;2023-01-15T08:12:13;100470.88;;;29.01;25.33
77739;BME280;66904;59.926;30.404;2023-01-15T08:17:33;100451.56;;;29.02;25.95
77739;BME280;66904;59.926;30.404;2023-01-15T08:22:34;100443.75;;;29.06;25.75
77739;BME280;66904;59.926;30.404;2023-01-15T08:27:36;100439.69;;;29.08;25.68
77739;BME280;66904;59.926;30.404;2023-01-15T08:32:37;100407.94;;;29.14;26.15
77739;BME280;66904;59.926;30.404;2023-01-15T08:37:41;100410.84;;;29.24;26.44
77739;BME280;66904;59.926;30.404;2023-01-15T08:42:42;100406.72;;;29.21;26.65
77739;BME280;66904;59.926;30.404;2023-01-15T08:47:42;100389.88;;;29.24;26.25
77739;BME280;66904;59.926;30.404;2023-01-15T08:52:43;100393.31;;;29.32;26.32
77739;BME280;66904;59.926;30.404;2023-01-15T08:57:43;100384.91;;;29.33;26.83
77739;BME280;66904;59.926;30.404;2023-01-15T09:02:47;100384.16;;;29.38;26.86
77739;BME280;66904;59.926;30.404;2023-01-15T09:08:35;100356.34;;;29.52;27.06
77739;BME280;66904;59.926;30.404;2023-01-15T09:13:43;100337.25;;;29.36;26.02
77739;BME280;66904;59.926;30.404;2023-01-15T09:18:43;100345.16;;;29.37;25.96
77739;BME280;66904;59.926;30.404;2023-01-15T09:23:44;100333.94;;;29.34;25.83
77739;BME280;66904;59.926;30.404;2023-01-15T09:28:44;100321.41;;;29.33;25.42
77739;BME280;66904;59.926;30.404;2023-01-15T09:33:45;100312.63;;;29.31;25.62
77739;BME280;66904;59.926;30.404;2023-01-15T09:38:45;100290.00;;;29.30;25.59
77739;BME280;66904;59.926;30.404;2023-01-15T09:43:54;100283.91;;;29.40;25.44
77739;BME280;66904;59.926;30.404;2023-01-15T09:49:33;100263.34;;;29.49;25.16
77739;BME280;66904;59.926;30.404;2023-01-15T09:59:48;100234.69;;;29.30;25.24
77739;BME280;66904;59.926;30.404;2023-01-15T10:05:16;100216.41;;;29.47;24.82
77739;BME280;66904;59.926;30.404;2023-01-15T10:10:19;100204.22;;;29.33;25.25
77739;BME280;66904;59.926;30.404;2023-01-15T10:15:45;100186.69;;;29.45;24.66
77739;BME280;66904;59.926;30.404;2023-01-15T10:31:18;100138.72;;;29.28;25.02
77739;BME280;66904;59.926;30.404;2023-01-15T10:36:38;100124.03;;;29.29;25.20
77739;BME280;66904;59.926;30.404;2023-01-15T10:41:54;100104.44;;;29.32;24.89
77739;BME280;66904;59.926;30.404;2023-01-15T10:46:59;100107.91;;;29.27;24.28
77739;BME280;66904;59.926;30.404;2023-01-15T11:08:03;100064.13;;;29.17;24.46
77739;BME280;66904;59.926;30.404;2023-01-15T11:13:24;100057.56;;;29.51;24.56
77739;BME280;66904;59.926;30.404;2023-01-15T11:18:44;100046.06;;;29.11;25.30
77739;BME280;66904;59.926;30.404;2023-01-15T11:24:14;100039.06;;;29.15;25.80
77739;BME280;66904;59.926;30.404;2023-01-15T11:29:32;100037.22;;;29.20;25.42
77739;BME280;66904;59.926;30.404;2023-01-15T11:34:37;100015.13;;;29.00;26.36
77739;BME280;66904;59.926;30.404;2023-01-15T11:39:39;100013.25;;;29.01;26.48
77739;BME280;66904;59.926;30.404;2023-01-15T11:44:49;100019.25;;;29.19;25.75
77739;BME280;66904;59.926;30.404;2023-01-15T11:50:18;100023.84;;;29.19;26.84
77739;BME280;66904;59.926;30.404;2023-01-15T11:55:38;100010.34;;;29.07;27.02
77739;BME280;66904;59.926;30.404;2023-01-15T12:00:41;100017.03;;;29.16;30.14
77739;BME280;66904;59.926;30.404;2023-01-15T12:05:59;99989.09;;;29.26;31.47
77739;BME280;66904;59.926;30.404;2023-01-15T12:16:46;99967.41;;;29.58;28.77
77739;BME280;66904;59.926;30.404;2023-01-15T12:38:17;99944.06;;;29.94;28.17
77739;BME280;66904;59.926;30.404;2023-01-15T12:43:25;99931.84;;;30.01;28.72
77739;BME280;66904;59.926;30.404;2023-01-15T12:49:05;99930.28;;;30.10;28.05
77739;BME280;66904;59.926;30.404;2023-01-15T12:54:13;99891.94;;;29.90;27.16
77739;BME280;66904;59.926;30.404;2023-01-15T12:59:29;99885.72;;;30.00;27.63
77739;BME280;66904;59.926;30.404;2023-01-15T13:15:03;99890.50;;;30.14;26.52
77739;BME280;66904;59.926;30.404;2023-01-15T13:20:30;99863.19;;;30.09;26.47
77739;BME280;66904;59.926;30.404;2023-01-15T13:26:05;99861.97;;;29.95;26.25
77739;BME280;66904;59.926;30.404;2023-01-15T13:36:43;99866.19;;;29.81;25.48
77739;BME280;66904;59.926;30.404;2023-01-15T13:41:55;99853.13;;;29.83;25.24
77739;BME280;66904;59.926;30.404;2023-01-15T13:47:23;99855.47;;;29.69;25.10
77739;BME280;66904;59.926;30.404;2023-01-15T13:52:31;99859.78;;;29.65;25.32
77739;BME280;66904;59.926;30.404;2023-01-15T13:57:35;99858.09;;;29.59;24.50
77739;BME280;66904;59.926;30.404;2023-01-15T14:02:37;99847.94;;;29.50;24.46
77739;BME280;66904;59.926;30.404;2023-01-15T14:07:38;99841.88;;;29.43;24.41
77739;BME280;66904;59.926;30.404;2023-01-15T14:13:00;99846.06;;;29.55;24.36
77739;BME280;66904;59.926;30.404;2023-01-15T14:44:42;99846.63;;;29.31;26.17
77739;BME280;66904;59.926;30.404;2023-01-15T14:49:45;99850.19;;;29.31;27.74
77739;BME280;66904;59.926;30.404;2023-01-15T14:54:48;99845.00;;;29.30;27.72
